Time;durP1;ratioP1;P1;durP2;ratioP2;P2;SDS_P1;SDS_P2;PMS_P1;PMS_P2;Temp;Humidity;BMP_temperature;BMP_pressure;BME280_temperature;BME280_humidity;BME280_pressure;Samples;Min_cycle;Max_cycle;Signal;HPM_P1;HPM_P2
2024/02/05 00:00:35;;;;;;;;;;;;;;;;;;5093623;28;19956;-69
2024/02/05 00:03:02;;;;;;;;;;;;;;;;;;5094016;28;19950;-69
2024/02/05 00:05:28;;;;;;;;;;;;;;;;;;5093821;28;19911;-69
2024/02/05 00:07:54;;;;;;;;;;;;;;;;;;5093167;28;19916;-69
2024/02/05 00:10:20;;;;;;;;;;;;;;;;;;5093718;28;19908;-69
2024/02/05 00:12:46;;;;;;;;;;;;;;;;;;5093336;28;19931;-69
2024/02/05 00:15:12;;;;;;;;;;;;;;;;;;5093769;28;19943;-69
2024/02/05 00:17:38;;;;;;;;;;;;;;;;;;5093746;28;19914;-69
2024/02/05 00:20:04;;;;;;;;;;;;;;;;;;5093284;28;20003;-69
2024/02/05 00:22:30;;;;;;;;;;;;;;;;;;5094298;28;20295;-69
2024/02/05 00:24:56;;;;;;;;;;;;;;;;;;5093680;28;19999;-69
2024/02/05 00:27:22;;;;;;;;;;;;;;;;;;5093281;28;19908;-69
2024/02/05 00:29:48;;;;;;;;;;;;;;;;;;5094375;28;19920;-69
2024/02/05 00:32:14;;;;;;;;;;;;;;;;;;5097829;28;20003;-69
2024/02/05 00:34:40;;;;;;;;;;;;;;;;;;5097336;28;20361;-69
2024/02/05 00:37:07;;;;;;;;;;;;;;;;;;5097979;28;20330;-69
2024/02/05 00:39:33;;;;;;;;;;;;;;;;;;5097877;28;19912;-69
2024/02/05 00:41:59;;;;;;;;;;;;;;;;;;5097178;28;20414;-69
2024/02/05 00:44:25;;;;;;;;;;;;;;;;;;5097417;28;19908;-69
2024/02/05 00:46:52;;;;;;;;;;;;;;;;;;5097406;28;19908;-69
2024/02/05 00:49:18;;;;;;;;;;;;;;;;;;5096902;28;20402;-69
2024/02/05 00:51:44;;;;;;;;;;;;;;;;;;5097621;28;20272;-69
2024/02/05 00:54:10;;;;;;;;;;;;;;;;;;5097362;28;19961;-69
2024/02/05 00:56:36;;;;;;;;;;;;;;;;;;5096937;28;20275;-69
2024/02/05 00:59:04;;;;;;;;;;;;;;;;;;5097395;28;19908;-69
2024/02/05 01:01:30;;;;;;;;;;;;;;;;;;5097157;28;20448;-69
2024/02/05 01:03:56;;;;;;;;;;;;;;;;;;5096779;28;19999;-69
2024/02/05 01:06:22;;;;;;;;;;;;;;;;;;5097233;28;19908;-69
2024/02/05 01:08:48;;;;;;;;;;;;;;;;;;5096725;28;20352;-69
2024/02/05 01:11:15;;;;;;;;;;;;;;;;;;5096664;28;19922;-69
2024/02/05 01:13:41;;;;;;;;;;;;;;;;;;5096941;28;19908;-69
2024/02/05 01:16:07;;;;;;;;;;;;;;;;;;5096508;28;19915;-69
2024/02/05 01:18:33;;;;;;;;;;;;;;;;;;5096860;28;19908;-69
2024/02/05 01:20:59;;;;;;;;;;;;;;;;;;5097007;28;19915;-70
2024/02/05 01:23:25;;;;;;;;;;;;;;;;;;5096481;28;19908;-70
2024/02/05 01:25:51;;;;;;;;;;;;;;;;;;5096640;28;19989;-69
2024/02/05 01:28:17;;;;;;;;;;;;;;;;;;5096785;28;19916;-69
2024/02/05 01:30:43;;;;;;;;;;;;;;;;;;5096222;28;19934;-70
2024/02/05 01:33:09;;;;;;;;;;;;;;;;;;5096833;28;19908;-69
2024/02/05 01:35:35;;;;;;;;;;;;;;;;;;5096478;28;20284;-69
2024/02/05 01:38:01;;;;;;;;;;;;;;;;;;5096044;28;19909;-69
2024/02/05 01:40:27;;;;;;;;;;;;;;;;;;5095900;28;19908;-69
2024/02/05 01:42:53;;;;;;;;;;;;;;;;;;5096339;28;19961;-69
2024/02/05 01:45:19;;;;;;;;;;;;;;;;;;5095816;28;19909;-69
2024/02/05 01:47:45;;;;;;;;;;;;;;;;;;5096159;28;19909;-69
2024/02/05 01:50:11;;;;;;;;;;;;;;;;;;5096422;28;19958;-69
2024/02/05 01:52:37;;;;;;;;;;;;;;;;;;5095775;28;19909;-69
2024/02/05 01:55:05;;;;;;;;;;;;;;;;;;5096229;28;19931;-69
2024/02/05 01:57:31;;;;;;;;;;;;;;;;;;5096088;28;20398;-69
2024/02/05 01:59:57;;;;;;;;;;;;;;;;;;5095663;28;19932;-69
2024/02/05 02:02:23;;;;;;;;;;;;;;;;;;5095986;28;20399;-69
2024/02/05 02:04:49;;;;;;;;;;;;;;;;;;5095974;28;19943;-69
2024/02/05 02:07:15;;;;;;;;;;;;;;;;;;5095530;28;19908;-69
2024/02/05 02:09:41;;;;;;;;;;;;;;;;;;5095602;28;19924;-69
2024/02/05 02:12:07;;;;;;;;;;;;;;;;;;5095889;28;19912;-69
2024/02/05 02:14:33;;;;;;;;;;;;;;;;;;5095299;28;20280;-69
2024/02/05 02:16:59;;;;;;;;;;;;;;;;;;5095876;28;20383;-69
2024/02/05 02:19:25;;;;;;;;;;;;;;;;;;5095273;28;20425;-69
2024/02/05 02:21:50;;;;;;;;;;;;;;;;;;5095560;28;20383;-69
2024/02/05 02:24:16;;;;;;;;;;;;;;;;;;5096088;28;20337;-69
2024/02/05 02:26:42;;;;;;;;;;;;;;;;;;5076969;28;20276;-69
2024/02/05 02:29:08;;;;;;;;;;;;;;;;;;5095354;28;20028;-69
2024/02/05 02:31:34;;;;;;;;;;;;;;;;;;5095391;28;19912;-69
2024/02/05 02:34:00;;;;;;;;;;;;;;;;;;5094901;28;19908;-69
2024/02/05 02:36:26;;;;;;;;;;;;;;;;;;5095662;28;20391;-69
2024/02/05 02:38:52;;;;;;;;;;;;;;;;;;5095244;28;19916;-69
2024/02/05 02:41:18;;;;;;;;;;;;;;;;;;5094928;28;20003;-69
2024/02/05 02:43:44;;;;;;;;;;;;;;;;;;5095332;28;19999;-69
2024/02/05 02:46:10;;;;;;;;;;;;;;;;;;5095171;28;20395;-69
2024/02/05 02:48:36;;;;;;;;;;;;;;;;;;5094856;28;20288;-69
2024/02/05 02:51:02;;;;;;;;;;;;;;;;;;5095045;28;20273;-69
2024/02/05 02:53:28;;;;;;;;;;;;;;;;;;5094183;28;20428;-69
2024/02/05 02:55:54;;;;;;;;;;;;;;;;;;5094581;28;19912;-69
2024/02/05 02:58:20;;;;;;;;;;;;;;;;;;5095140;28;19944;-69
2024/02/05 03:00:46;;;;;;;;;;;;;;;;;;5094900;28;19909;-69
2024/02/05 03:03:12;;;;;;;;;;;;;;;;;;5094519;28;19908;-69
2024/02/05 03:05:38;;;;;;;;;;;;;;;;;;5094822;28;19908;-69
2024/02/05 03:08:04;;;;;;;;;;;;;;;;;;5094431;28;19928;-69
2024/02/05 03:10:30;;;;;;;;;;;;;;;;;;5094326;28;19908;-70
2024/02/05 03:12:56;;;;;;;;;;;;;;;;;;5094902;28;20022;-69
2024/02/05 03:15:22;;;;;;;;;;;;;;;;;;5094593;28;19908;-69
2024/02/05 03:17:48;;;;;;;;;;;;;;;;;;5094348;28;19908;-69
2024/02/05 03:20:14;;;;;;;;;;;;;;;;;;5094542;28;19912;-69
2024/02/05 03:22:41;;;;;;;;;;;;;;;;;;5094133;28;19908;-69
2024/02/05 03:25:07;;;;;;;;;;;;;;;;;;5094451;28;19908;-69
2024/02/05 03:27:33;;;;;;;;;;;;;;;;;;5094648;28;20334;-69
2024/02/05 03:29:59;;;;;;;;;;;;;;;;;;5093947;28;19917;-69
2024/02/05 03:32:25;;;;;;;;;;;;;;;;;;5094354;28;19966;-70
2024/02/05 03:34:51;;;;;;;;;;;;;;;;;;5094217;28;19908;-69
2024/02/05 03:37:17;;;;;;;;;;;;;;;;;;5093853;28;19998;-69
2024/02/05 03:39:42;;;;;;;;;;;;;;;;;;5094239;28;19908;-69
2024/02/05 03:42:08;;;;;;;;;;;;;;;;;;5094186;28;19908;-69
2024/02/05 03:44:34;;;;;;;;;;;;;;;;;;5093682;28;19916;-69
2024/02/05 03:47:00;;;;;;;;;;;;;;;;;;5094090;28;19908;-69
2024/02/05 03:49:28;;;;;;;;;;;;;;;;;;5093958;28;19916;-69
2024/02/05 03:51:54;;;;;;;;;;;;;;;;;;5093644;28;19912;-69
2024/02/05 03:54:20;;;;;;;;;;;;;;;;;;5094056;28;19915;-69
2024/02/05 03:56:46;;;;;;;;;;;;;;;;;;5094008;28;19908;-69
2024/02/05 03:59:12;;;;;;;;;;;;;;;;;;5093499;28;19908;-70
2024/02/05 04:01:38;;;;;;;;;;;;;;;;;;5094103;28;20007;-69
2024/02/05 04:04:04;;;;;;;;;;;;;;;;;;5093661;28;19912;-69
2024/02/05 04:06:30;;;;;;;;;;;;;;;;;;5093396;28;19915;-69
2024/02/05 04:08:56;;;;;;;;;;;;;;;;;;5093477;28;20296;-69
2024/02/05 04:11:21;;;;;;;;;;;;;;;;;;5093801;28;19940;-70
2024/02/05 04:13:47;;;;;;;;;;;;;;;;;;5093376;28;19944;-69
2024/02/05 04:16:13;;;;;;;;;;;;;;;;;;5093927;28;19919;-69
2024/02/05 04:18:39;;;;;;;;;;;;;;;;;;5093767;28;20360;-69
2024/02/05 04:21:05;;;;;;;;;;;;;;;;;;5093292;28;19909;-69
2024/02/05 04:23:31;;;;;;;;;;;;;;;;;;5093600;28;19908;-69
2024/02/05 04:26:00;;;;;;;;;;;;;;;;;;5093401;28;20003;-69
2024/02/05 04:28:26;;;;;;;;;;;;;;;;;;5093589;28;19913;-69
2024/02/05 04:30:52;;;;;;;;;;;;;;;;;;5093626;28;19994;-69
2024/02/05 04:33:18;;;;;;;;;;;;;;;;;;5093226;28;19916;-69
2024/02/05 04:35:44;;;;;;;;;;;;;;;;;;5093600;28;20002;-69
2024/02/05 04:38:10;;;;;;;;;;;;;;;;;;5093537;28;20003;-70
2024/02/05 04:40:37;;;;;;;;;;;;;;;;;;5093117;28;19995;-70
2024/02/05 04:43:03;;;;;;;;;;;;;;;;;;5093445;28;19962;-69
2024/02/05 04:45:29;;;;;;;;;;;;;;;;;;5094055;28;19959;-69
2024/02/05 04:47:55;;;;;;;;;;;;;;;;;;5092916;28;19948;-69
2024/02/05 04:50:21;;;;;;;;;;;;;;;;;;5093460;28;19912;-69
2024/02/05 04:52:47;;;;;;;;;;;;;;;;;;5093404;28;19954;-69
2024/02/05 04:55:13;;;;;;;;;;;;;;;;;;5093156;28;20409;-69
2024/02/05 04:57:40;;;;;;;;;;;;;;;;;;5094008;28;20030;-69
2024/02/05 05:00:06;;;;;;;;;;;;;;;;;;5093380;28;20390;-69
2024/02/05 05:02:32;;;;;;;;;;;;;;;;;;5074677;28;19909;-69
2024/02/05 05:04:58;;;;;;;;;;;;;;;;;;5093459;28;19973;-69
2024/02/05 05:07:24;;;;;;;;;;;;;;;;;;5093115;28;20323;-69
2024/02/05 05:09:50;;;;;;;;;;;;;;;;;;5091666;28;20019;-69
2024/02/05 05:12:18;;;;;;;;;;;;;;;;;;5091674;28;19908;-69
2024/02/05 05:14:44;;;;;;;;;;;;;;;;;;5093151;28;19919;-69
2024/02/05 05:17:10;;;;;;;;;;;;;;;;;;5095603;28;19916;-69
2024/02/05 05:19:36;;;;;;;;;;;;;;;;;;5095660;28;19950;-69
2024/02/05 05:22:02;;;;;;;;;;;;;;;;;;5096739;28;19908;-69
2024/02/05 05:24:27;;;;;;;;;;;;;;;;;;5096329;28;19908;-69
2024/02/05 05:26:53;;;;;;;;;;;;;;;;;;5096683;28;19955;-69
2024/02/05 05:29:20;;;;;;;;;;;;;;;;;;5096269;28;19969;-69
2024/02/05 05:31:46;;;;;;;;;;;;;;;;;;5094486;28;19908;-69
2024/02/05 05:34:12;;;;;;;;;;;;;;;;;;5094840;28;20387;-69
2024/02/05 05:36:38;;;;;;;;;;;;;;;;;;5096134;28;19912;-69
2024/02/05 05:39:05;;;;;;;;;;;;;;;;;;5095407;28;19912;-69
2024/02/05 05:41:31;;;;;;;;;;;;;;;;;;5094515;28;19908;-69
2024/02/05 05:43:58;;;;;;;;;;;;;;;;;;5093987;28;20325;-69
2024/02/05 05:46:24;;;;;;;;;;;;;;;;;;5094263;28;20034;-69
2024/02/05 05:48:50;;;;;;;;;;;;;;;;;;5094095;28;19923;-69
2024/02/05 05:51:16;;;;;;;;;;;;;;;;;;5093725;28;19909;-69
2024/02/05 05:53:42;;;;;;;;;;;;;;;;;;5094134;28;19914;-69
2024/02/05 05:56:08;;;;;;;;;;;;;;;;;;5094025;28;20365;-69
2024/02/05 05:58:34;;;;;;;;;;;;;;;;;;5093529;28;19912;-69
2024/02/05 06:01:05;;;;;;;;;;;;;;;;;;5094027;28;20280;-69
2024/02/05 06:03:31;;;;;;;;;;;;;;;;;;5093857;28;19994;-69
2024/02/05 06:05:57;;;;;;;;;;;;;;;;;;5094394;28;20347;-69
2024/02/05 06:08:23;;;;;;;;;;;;;;;;;;5095574;28;20334;-69
2024/02/05 06:10:49;;;;;;;;;;;;;;;;;;5095796;28;20364;-69
2024/02/05 06:13:15;;;;;;;;;;;;;;;;;;5092889;28;20267;-69
2024/02/05 06:15:41;;;;;;;;;;;;;;;;;;5095145;28;19938;-68
2024/02/05 06:18:07;;;;;;;;;;;;;;;;;;5092391;28;19919;-70
2024/02/05 06:20:33;;;;;;;;;;;;;;;;;;5093825;28;19912;-72
2024/02/05 06:22:59;;;;;;;;;;;;;;;;;;5091519;28;19919;-73
2024/02/05 06:25:25;;;;;;;;;;;;;;;;;;5091174;28;20004;-70
2024/02/05 06:27:51;;;;;;;;;;;;;;;;;;5089673;28;20094;-70
2024/02/05 06:30:17;;;;;;;;;;;;;;;;;;5088726;28;19920;-68
2024/02/05 06:32:43;;;;;;;;;;;;;;;;;;5090141;28;19912;-67
2024/02/05 06:35:09;;;;;;;;;;;;;;;;;;5085638;28;19920;-66
2024/02/05 06:37:35;;;;;;;;;;;;;;;;;;5079217;28;19908;-68
2024/02/05 06:40:01;;;;;;;;;;;;;;;;;;5086301;28;19920;-72
2024/02/05 06:42:27;;;;;;;;;;;;;;;;;;5090872;28;19959;-68
2024/02/05 06:44:53;;;;;;;;;;;;;;;;;;5089779;28;20233;-66
2024/02/05 06:47:19;;;;;;;;;;;;;;;;;;5084721;28;19912;-66
2024/02/05 06:49:45;;;;;;;;;;;;;;;;;;5082399;28;19920;-66
2024/02/05 06:52:12;;;;;;;;;;;;;;;;;;5071030;28;20314;-68
2024/02/05 06:54:38;;;;;;;;;;;;;;;;;;5084895;28;20294;-66
2024/02/05 06:57:05;;;;;;;;;;;;;;;;;;5084666;28;19969;-67
2024/02/05 06:59:31;;;;;;;;;;;;;;;;;;5086685;28;19916;-66
2024/02/05 07:01:57;;;;;;;;;;;;;;;;;;5082280;28;19916;-69
2024/02/05 07:04:26;;;;;;;;;;;;;;;;;;5086866;28;19942;-67
2024/02/05 07:06:52;;;;;;;;;;;;;;;;;;5092778;28;20383;-66
2024/02/05 07:09:21;;;;;;;;;;;;;;;;;;5088847;28;19920;-65
2024/02/05 07:11:47;;;;;;;;;;;;;;;;;;5086593;28;20291;-66
2024/02/05 07:14:13;;;;;;;;;;;;;;;;;;5086052;28;20059;-66
2024/02/05 07:16:39;;;;;;;;;;;;;;;;;;5092272;28;19955;-67
2024/02/05 07:19:07;;;;;;;;;;;;;;;;;;5091099;28;19933;-66
2024/02/05 07:21:34;;;;;;;;;;;;;;;;;;5090496;28;20000;-67
2024/02/05 07:24:00;;;;;;;;;;;;;;;;;;5090383;28;20272;-69
2024/02/05 07:26:26;;;;;;;;;;;;;;;;;;5090505;28;19912;-68
2024/02/05 07:28:52;;;;;;;;;;;;;;;;;;5090122;28;19990;-67
2024/02/05 07:31:18;;;;;;;;;;;;;;;;;;5091711;28;19930;-68
2024/02/05 07:33:44;;;;;;;;;;;;;;;;;;5090844;28;20411;-67
2024/02/05 07:36:10;;;;;;;;;;;;;;;;;;5097653;28;20399;-66
2024/02/05 07:38:38;;;;;;;;;;;;;;;;;;5091232;28;20424;-67
2024/02/05 07:41:04;;;;;;;;;;;;;;;;;;5090322;28;20459;-68
2024/02/05 07:43:30;;;;;;;;;;;;;;;;;;5089908;28;19912;-70
2024/02/05 07:45:56;;;;;;;;;;;;;;;;;;5090802;28;20405;-69
2024/02/05 07:48:22;;;;;;;;;;;;;;;;;;5090190;28;20018;-69
2024/02/05 07:50:48;;;;;;;;;;;;;;;;;;5088580;28;20054;-68
2024/02/05 07:53:14;;;;;;;;;;;;;;;;;;5088518;28;19955;-71
2024/02/05 07:55:40;;;;;;;;;;;;;;;;;;5089604;28;20566;-68
2024/02/05 07:58:06;;;;;;;;;;;;;;;;;;5086945;28;20291;-68
2024/02/05 08:00:32;;;;;;;;;;;;;;;;;;5090673;28;19912;-69
2024/02/05 08:02:58;;;;;;;;;;;;;;;;;;5089692;28;19920;-68
2024/02/05 08:05:24;;;;;;;;;;;;;;;;;;5071370;28;19923;-68
2024/02/05 08:07:50;;;;;;;;;;;;;;;;;;5089777;28;20003;-67
2024/02/05 08:10:16;;;;;;;;;;;;;;;;;;5092686;28;19920;-69
2024/02/05 08:12:42;;;;;;;;;;;;;;;;;;5068621;28;19924;-69
2024/02/05 08:15:09;;;;;;;;;;;;;;;;;;5091723;28;19920;-68
2024/02/05 08:17:35;;;;;;;;;;;;;;;;;;5090990;28;19913;-68
2024/02/05 08:20:01;;;;;;;;;;;;;;;;;;5089538;28;19965;-69
2024/02/05 08:22:28;;;;;;;;;;;;;;;;;;5087785;28;19919;-70
2024/02/05 08:24:54;;;;;;;;;;;;;;;;;;5070804;28;20641;-69
2024/02/05 08:27:21;;;;;;;;;;;;;;;;;;5079768;28;20011;-68
2024/02/05 08:29:48;;;;;;;;;;;;;;;;;;5088120;28;19920;-68
2024/02/05 08:32:14;;;;;;;;;;;;;;;;;;5087653;28;20333;-69
2024/02/05 08:34:40;;;;;;;;;;;;;;;;;;5086121;28;20647;-68
2024/02/05 08:37:06;;;;;;;;;;;;;;;;;;5062159;28;19919;-69
2024/02/05 08:39:32;;;;;;;;;;;;;;;;;;5085475;28;19919;-69
2024/02/05 08:41:58;;;;;;;;;;;;;;;;;;5086604;28;19918;-69
2024/02/05 08:44:26;;;;;;;;;;;;;;;;;;5085487;28;19920;-68
2024/02/05 08:46:53;;;;;;;;;;;;;;;;;;5083456;28;19932;-68
2024/02/05 08:49:19;;;;;;;;;;;;;;;;;;5088097;28;19920;-68
2024/02/05 08:51:45;;;;;;;;;;;;;;;;;;5092323;28;19965;-67
2024/02/05 08:54:12;;;;;;;;;;;;;;;;;;5091566;28;19939;-69
2024/02/05 08:56:39;;;;;;;;;;;;;;;;;;5092137;28;20386;-68
2024/02/05 08:59:05;;;;;;;;;;;;;;;;;;5088840;28;19928;-68
2024/02/05 09:01:31;;;;;;;;;;;;;;;;;;5072066;28;19917;-67
2024/02/05 09:03:57;;;;;;;;;;;;;;;;;;5067748;28;19920;-68
2024/02/05 09:06:23;;;;;;;;;;;;;;;;;;5088378;28;19913;-68
2024/02/05 09:08:49;;;;;;;;;;;;;;;;;;5075375;28;19920;-69
2024/02/05 09:11:15;;;;;;;;;;;;;;;;;;5090381;28;19931;-69
2024/02/05 09:13:41;;;;;;;;;;;;;;;;;;5091221;28;19912;-69
2024/02/05 09:16:07;;;;;;;;;;;;;;;;;;5088760;28;19908;-69
2024/02/05 09:18:34;;;;;;;;;;;;;;;;;;5089183;28;19921;-69
2024/02/05 09:21:00;;;;;;;;;;;;;;;;;;5088167;28;20246;-69
2024/02/05 09:23:26;;;;;;;;;;;;;;;;;;5088021;28;19912;-69
2024/02/05 09:25:52;;;;;;;;;;;;;;;;;;5091105;28;20358;-69
2024/02/05 09:28:19;;;;;;;;;;;;;;;;;;5094536;28;19920;-69
2024/02/05 09:30:45;;;;;;;;;;;;;;;;;;5092535;28;19946;-68
2024/02/05 09:33:11;;;;;;;;;;;;;;;;;;5094991;28;20392;-68
2024/02/05 09:35:37;;;;;;;;;;;;;;;;;;5092176;28;19919;-67
2024/02/05 09:38:04;;;;;;;;;;;;;;;;;;5093877;28;20462;-67
2024/02/05 09:40:30;;;;;;;;;;;;;;;;;;5093070;28;19924;-71
2024/02/05 09:42:56;;;;;;;;;;;;;;;;;;5074704;28;20288;-67
2024/02/05 09:45:22;;;;;;;;;;;;;;;;;;5092454;28;19967;-69
2024/02/05 09:47:48;;;;;;;;;;;;;;;;;;5081345;28;20017;-71
2024/02/05 09:50:14;;;;;;;;;;;;;;;;;;5064086;28;19924;-71
2024/02/05 09:52:41;;;;;;;;;;;;;;;;;;5094137;28;19916;-70
2024/02/05 09:55:07;;;;;;;;;;;;;;;;;;5073095;28;19955;-67
2024/02/05 09:57:33;;;;;;;;;;;;;;;;;;5088978;28;19947;-67
2024/02/05 09:59:59;;;;;;;;;;;;;;;;;;5089998;28;20372;-67
2024/02/05 10:02:25;;;;;;;;;;;;;;;;;;5088985;28;19916;-67
2024/02/05 10:04:51;;;;;;;;;;;;;;;;;;5090528;28;19921;-69
2024/02/05 10:07:17;;;;;;;;;;;;;;;;;;5089774;28;20008;-68
2024/02/05 10:09:43;;;;;;;;;;;;;;;;;;5090190;28;20300;-67
2024/02/05 10:12:09;;;;;;;;;;;;;;;;;;5091316;28;19912;-68
2024/02/05 10:14:35;;;;;;;;;;;;;;;;;;5086884;28;19916;-67
2024/02/05 10:17:01;;;;;;;;;;;;;;;;;;5091370;28;19934;-68
2024/02/05 10:19:29;;;;;;;;;;;;;;;;;;5066503;28;19950;-68
2024/02/05 10:21:56;;;;;;;;;;;;;;;;;;5090623;28;19959;-67
2024/02/05 10:24:22;;;;;;;;;;;;;;;;;;5086388;28;20424;-68
2024/02/05 10:26:56;;;;;;;;;;;;;;;;;;5088033;28;19912;-68
2024/02/05 10:29:22;;;;;;;;;;;;;;;;;;5083904;28;19924;-69
2024/02/05 10:31:49;;;;;;;;;;;;;;;;;;5079486;28;19992;-68
2024/02/05 10:34:15;;;;;;;;;;;;;;;;;;5080993;28;19919;-68
2024/02/05 10:36:41;;;;;;;;;;;;;;;;;;5089151;28;20567;-67
2024/02/05 10:39:07;;;;;;;;;;;;;;;;;;5091805;28;19923;-69
2024/02/05 10:41:33;;;;;;;;;;;;;;;;;;5092490;28;19912;-70
2024/02/05 10:44:00;;;;;;;;;;;;;;;;;;5101586;28;20360;-70
2024/02/05 10:46:26;;;;;;;;;;;;;;;;;;5094322;28;19908;-71
2024/02/05 10:48:52;;;;;;;;;;;;;;;;;;5112786;28;20394;-69
2024/02/05 10:51:18;;;;;;;;;;;;;;;;;;5110013;28;20348;-70
2024/02/05 10:53:44;;;;;;;;;;;;;;;;;;5092615;28;19916;-70
2024/02/05 10:56:10;;;;;;;;;;;;;;;;;;5088291;28;20362;-71
2024/02/05 10:58:38;;;;;;;;;;;;;;;;;;5089163;28;20018;-70
2024/02/05 11:01:04;;;;;;;;;;;;;;;;;;5088317;28;20013;-70
2024/02/05 11:03:30;;;;;;;;;;;;;;;;;;5091963;28;19915;-70
2024/02/05 11:05:56;;;;;;;;;;;;;;;;;;5106894;28;20441;-70
2024/02/05 11:08:23;;;;;;;;;;;;;;;;;;5088936;28;19998;-70
2024/02/05 11:10:51;;;;;;;;;;;;;;;;;;5087933;28;20180;-70
2024/02/05 11:13:17;;;;;;;;;;;;;;;;;;5089732;28;19915;-70
2024/02/05 11:15:43;;;;;;;;;;;;;;;;;;5090344;28;19908;-70
2024/02/05 11:18:09;;;;;;;;;;;;;;;;;;5090651;28;20287;-70
2024/02/05 11:20:35;;;;;;;;;;;;;;;;;;5090129;28;20314;-71
2024/02/05 11:24:30;;;;;;;;;;;;;;;;;;5085271;27;19927;-70
2024/02/05 11:26:56;;;;;;;;;;;;;;;;;;5083879;28;19916;-67
2024/02/05 11:32:12;;;;;;;;;;;;;;;;;;5084334;27;19931;-70
2024/02/05 11:35:52;;;;;;;;;;;;;;;;;;5086377;27;19924;-68
2024/02/05 11:38:19;;;;;;;;;;;;;;;;;;5084487;28;19913;-66
2024/02/05 11:40:45;;;;;;;;;;;;;;;;;;5084296;28;19908;-71
2024/02/05 11:43:11;;;;;;;;;;;;;;;;;;5086407;28;19919;-71
2024/02/05 11:47:58;;;;;;;;;;;;;;;;;;5084797;27;19916;-68
2024/02/05 11:50:24;;;;;;;;;;;;;;;;;;5077973;28;19952;-66
2024/02/05 11:52:50;;;;;;;;;;;;;;;;;;5084553;28;19948;-66
2024/02/05 11:55:16;;;;;;;;;;;;;;;;;;5085898;28;20404;-67
2024/02/05 11:57:43;;;;;;;;;;;;;;;;;;5086570;28;20286;-66
2024/02/05 12:00:18;;;;;;;;;;;;;;;;;;5106459;27;19920;-67
2024/02/05 12:02:44;;;;;;;;;;;;;;;;;;5106937;28;19990;-67
2024/02/05 12:05:10;;;;;;;;;;;;;;;;;;5106569;28;19965;-66
2024/02/05 12:10:09;;;;;;;;;;;;;;;;;;5107196;27;19920;-69
2024/02/05 12:13:25;;;;;;;;;;;;;;;;;;5087141;27;19920;-67
2024/02/05 12:15:51;;;;;;;;;;;;;;;;;;5087820;28;19919;-67
2024/02/05 12:18:17;;;;;;;;;;;;;;;;;;5087250;28;19912;-66
2024/02/05 12:20:43;;;;;;;;;;;;;;;;;;5088572;28;19943;-66
2024/02/05 12:25:06;;;;;;;;;;;;;;;;;;5088939;27;19917;-67
2024/02/05 12:31:39;;;;;;;;;;;;;;;;;;5089621;27;19917;-68
2024/02/05 12:34:04;;;;;;;;;;;;;;;;;;5089658;28;20460;-69
2024/02/05 12:40:40;;;;;;;;;;;;;;;;;;5089341;27;19927;-68
2024/02/05 12:44:22;;;;;;;;;;;;;;;;;;5111533;27;19920;-67
2024/02/05 12:46:48;;;;;;;;;;;;;;;;;;5130192;27;20002;-66
2024/02/05 12:49:14;;;;;;;;;;;;;;;;;;5131054;27;19947;-67
2024/02/05 12:51:41;;;;;;;;;;;;;;;;;;5127461;27;19968;-68
2024/02/05 12:54:07;;;;;;;;;;;;;;;;;;5119289;28;19955;-71
2024/02/05 12:56:33;;;;;;;;;;;;;;;;;;5109823;28;19947;-70
2024/02/05 13:00:10;;;;;;;;;;;;;;;;;;5088901;27;19930;-71
2024/02/05 13:04:48;;;;;;;;;;;;;;;;;;5109656;27;19926;-70
2024/02/05 13:07:14;;;;;;;;;;;;;;;;;;5107982;28;20462;-71
2024/02/05 13:10:04;;;;;;;;;;;;;;;;;;5087192;27;19916;-72
2024/02/05 13:12:33;;;;;;;;;;;;;;;;;;5086736;28;19966;-70
2024/02/05 13:15:09;;;;;;;;;;;;;;;;;;5107364;27;19916;-71
2024/02/05 13:17:35;;;;;;;;;;;;;;;;;;5108084;28;19965;-71
2024/02/05 13:20:01;;;;;;;;;;;;;;;;;;5108544;28;19908;-69
2024/02/05 13:22:28;;;;;;;;;;;;;;;;;;5108456;28;20308;-70
2024/02/05 13:24:54;;;;;;;;;;;;;;;;;;5107472;28;20011;-70
2024/02/05 13:27:20;;;;;;;;;;;;;;;;;;5107360;28;19962;-70
2024/02/05 13:29:46;;;;;;;;;;;;;;;;;;5107202;28;20019;-71
2024/02/05 13:32:14;;;;;;;;;;;;;;;;;;5107584;28;20348;-71
2024/02/05 13:35:41;;;;;;;;;;;;;;;;;;5074357;28;19942;-71
2024/02/05 13:38:07;;;;;;;;;;;;;;;;;;5066607;28;20373;-70
2024/02/05 13:40:33;;;;;;;;;;;;;;;;;;5066202;28;19912;-70
2024/02/05 13:42:59;;;;;;;;;;;;;;;;;;5067736;28;19909;-71
2024/02/05 13:45:25;;;;;;;;;;;;;;;;;;5069681;28;19959;-70
2024/02/05 13:47:52;;;;;;;;;;;;;;;;;;5067667;28;20280;-70
2024/02/05 13:50:18;;;;;;;;;;;;;;;;;;5068469;28;19909;-69
2024/02/05 13:52:44;;;;;;;;;;;;;;;;;;5069492;28;19908;-69
2024/02/05 13:55:12;;;;;;;;;;;;;;;;;;5068563;28;19970;-69
2024/02/05 13:57:38;;;;;;;;;;;;;;;;;;5068533;28;19931;-70
2024/02/05 14:00:05;;;;;;;;;;;;;;;;;;5068771;28;20408;-70
2024/02/05 14:02:34;;;;;;;;;;;;;;;;;;5069701;28;19931;-70
2024/02/05 14:05:00;;;;;;;;;;;;;;;;;;5067666;28;19916;-71
2024/02/05 14:07:26;;;;;;;;;;;;;;;;;;5068386;28;19909;-71
2024/02/05 14:09:52;;;;;;;;;;;;;;;;;;5066416;28;19916;-70
2024/02/05 14:12:17;;;;;;;;;;;;;;;;;;5067645;28;19909;-70
2024/02/05 14:17:09;;;;;;;;;;;;;;;;;;5089131;27;20256;-70
2024/02/05 14:19:35;;;;;;;;;;;;;;;;;;5090064;28;19913;-70
2024/02/05 14:22:01;;;;;;;;;;;;;;;;;;5091089;28;20409;-70
2024/02/05 14:24:27;;;;;;;;;;;;;;;;;;5090520;28;19916;-69
2024/02/05 14:26:53;;;;;;;;;;;;;;;;;;5090424;28;19908;-71
2024/02/05 14:29:21;;;;;;;;;;;;;;;;;;5091690;28;19912;-70
2024/02/05 14:31:47;;;;;;;;;;;;;;;;;;5087478;28;20407;-71
2024/02/05 14:34:13;;;;;;;;;;;;;;;;;;5083628;28;19960;-72
2024/02/05 14:36:39;;;;;;;;;;;;;;;;;;5084640;28;19927;-70
2024/02/05 14:39:06;;;;;;;;;;;;;;;;;;5083832;28;19932;-70
2024/02/05 14:41:32;;;;;;;;;;;;;;;;;;5083966;28;19951;-70
2024/02/05 14:43:58;;;;;;;;;;;;;;;;;;5090629;28;19954;-70
2024/02/05 14:46:24;;;;;;;;;;;;;;;;;;5089817;28;19908;-70
2024/02/05 14:48:50;;;;;;;;;;;;;;;;;;5090386;28;19912;-70
2024/02/05 14:51:16;;;;;;;;;;;;;;;;;;5090442;28;20369;-70
2024/02/05 14:53:42;;;;;;;;;;;;;;;;;;5089709;28;19948;-71
2024/02/05 14:56:08;;;;;;;;;;;;;;;;;;5089898;28;20001;-72
2024/02/05 14:58:34;;;;;;;;;;;;;;;;;;5090301;28;19908;-70
2024/02/05 15:01:00;;;;;;;;;;;;;;;;;;5089687;28;19912;-71
2024/02/05 15:03:26;;;;;;;;;;;;;;;;;;5088649;28;20384;-72
2024/02/05 15:05:52;;;;;;;;;;;;;;;;;;5088597;28;19908;-72
2024/02/05 15:08:18;;;;;;;;;;;;;;;;;;5090379;28;19954;-72
2024/02/05 15:10:44;;;;;;;;;;;;;;;;;;5089975;28;19909;-72
2024/02/05 15:13:09;;;;;;;;;;;;;;;;;;5089866;28;19916;-71
2024/02/05 15:15:35;;;;;;;;;;;;;;;;;;5089572;28;20298;-71
2024/02/05 15:18:02;;;;;;;;;;;;;;;;;;5090261;28;20323;-71
2024/02/05 15:20:57;;;;;;;;;;;;;;;;;;5091010;27;20295;-72
2024/02/05 15:23:23;;;;;;;;;;;;;;;;;;5091053;28;19996;-70
2024/02/05 15:25:49;;;;;;;;;;;;;;;;;;5090563;28;20360;-71
2024/02/05 15:28:15;;;;;;;;;;;;;;;;;;5090780;28;19912;-71
2024/02/05 15:30:41;;;;;;;;;;;;;;;;;;5090697;28;19914;-72
2024/02/05 15:33:07;;;;;;;;;;;;;;;;;;5090703;28;20372;-72
2024/02/05 15:35:33;;;;;;;;;;;;;;;;;;5090146;28;20305;-72
2024/02/05 15:38:00;;;;;;;;;;;;;;;;;;5090742;28;20310;-71
2024/02/05 15:41:53;;;;;;;;;;;;;;;;;;5131288;27;20002;-72
2024/02/05 15:49:19;;;;;;;;;;;;;;;;;;5090453;27;19916;-71
2024/02/05 15:51:45;;;;;;;;;;;;;;;;;;5090700;28;19999;-71
2024/02/05 15:56:43;;;;;;;;;;;;;;;;;;5069836;28;20269;-72
2024/02/05 15:59:09;;;;;;;;;;;;;;;;;;5070937;28;19913;-70
2024/02/05 16:01:35;;;;;;;;;;;;;;;;;;5071020;28;19908;-72
2024/02/05 16:04:01;;;;;;;;;;;;;;;;;;5069728;28;19908;-71
2024/02/05 16:06:27;;;;;;;;;;;;;;;;;;5070859;28;19909;-70
2024/02/05 16:08:53;;;;;;;;;;;;;;;;;;5070805;28;19916;-70
2024/02/05 16:11:19;;;;;;;;;;;;;;;;;;5068588;28;19909;-70
2024/02/05 16:13:45;;;;;;;;;;;;;;;;;;5070382;28;19948;-69
2024/02/05 16:16:11;;;;;;;;;;;;;;;;;;5070548;28;19921;-72
2024/02/05 16:18:38;;;;;;;;;;;;;;;;;;5069738;28;19909;-72
2024/02/05 16:21:04;;;;;;;;;;;;;;;;;;5069177;28;20058;-72
2024/02/05 16:23:30;;;;;;;;;;;;;;;;;;5068454;28;19913;-72
2024/02/05 16:25:56;;;;;;;;;;;;;;;;;;5070486;28;19909;-71
2024/02/05 16:28:22;;;;;;;;;;;;;;;;;;5070437;28;19909;-72
2024/02/05 16:30:48;;;;;;;;;;;;;;;;;;5068628;28;19909;-71
2024/02/05 16:33:14;;;;;;;;;;;;;;;;;;5070819;28;19916;-71
2024/02/05 16:35:41;;;;;;;;;;;;;;;;;;5070820;28;19967;-72
2024/02/05 16:38:11;;;;;;;;;;;;;;;;;;5069860;28;20377;-71
2024/02/05 16:40:37;;;;;;;;;;;;;;;;;;5069018;28;20373;-71
2024/02/05 16:43:03;;;;;;;;;;;;;;;;;;5070357;28;19978;-70
2024/02/05 16:45:30;;;;;;;;;;;;;;;;;;5068398;28;20361;-71
2024/02/05 16:47:56;;;;;;;;;;;;;;;;;;5070181;28;19943;-71
2024/02/05 16:50:22;;;;;;;;;;;;;;;;;;5070014;28;20285;-71
2024/02/05 16:52:48;;;;;;;;;;;;;;;;;;5069677;28;19909;-71
2024/02/05 16:55:14;;;;;;;;;;;;;;;;;;5069730;28;20014;-71
2024/02/05 16:57:40;;;;;;;;;;;;;;;;;;5068412;28;19978;-71
2024/02/05 17:00:06;;;;;;;;;;;;;;;;;;5069533;28;20310;-71
2024/02/05 17:02:32;;;;;;;;;;;;;;;;;;5069796;28;20369;-71
2024/02/05 17:04:58;;;;;;;;;;;;;;;;;;5069632;28;20388;-70
2024/02/05 17:07:24;;;;;;;;;;;;;;;;;;5059334;28;19962;-71
2024/02/05 17:09:50;;;;;;;;;;;;;;;;;;5056365;28;19916;-70
2024/02/05 17:12:16;;;;;;;;;;;;;;;;;;5056418;28;20003;-70
2024/02/05 17:14:42;;;;;;;;;;;;;;;;;;5054600;28;20361;-70
2024/02/05 17:17:08;;;;;;;;;;;;;;;;;;5056285;28;19913;-70